sensor_id;sensor_type;location;lat;lon;timestamp;pressure;altitude;pressure_sealevel;temperature;humidity
46614;BME280;32338;50.430;6.806;2022-07-22T00:00:52;97215.56;;;15.88;100.00
46614;BME280;32338;50.430;6.806;2022-07-22T00:03:19;97211.47;;;15.86;100.00
46614;BME280;32338;50.430;6.806;2022-07-22T00:05:46;97208.41;;;15.89;100.00
46614;BME280;32338;50.430;6.806;2022-07-22T00:08:12;97214.97;;;15.86;100.00
46614;BME280;32338;50.430;6.806;2022-07-22T00:10:41;97216.41;;;15.89;100.00
46614;BME280;32338;50.430;6.806;2022-07-22T00:13:07;97222.53;;;15.89;100.00
46614;BME280;32338;50.430;6.806;2022-07-22T00:15:34;97216.19;;;15.91;100.00
46614;BME280;32338;50.430;6.806;2022-07-22T00:18:01;97212.50;;;15.92;100.00
46614;BME280;32338;50.430;6.806;2022-07-22T00:20:28;97205.97;;;15.87;100.00
46614;BME280;32338;50.430;6.806;2022-07-22T00:22:54;97202.06;;;15.83;100.00
46614;BME280;32338;50.430;6.806;2022-07-22T00:25:21;97210.47;;;15.87;100.00
46614;BME280;32338;50.430;6.806;2022-07-22T00:27:49;97216.00;;;15.79;100.00
46614;BME280;32338;50.430;6.806;2022-07-22T00:30:15;97204.31;;;15.80;100.00
46614;BME280;32338;50.430;6.806;2022-07-22T00:32:43;97208.03;;;15.72;100.00
46614;BME280;32338;50.430;6.806;2022-07-22T00:35:09;97210.69;;;15.72;100.00
46614;BME280;32338;50.430;6.806;2022-07-22T00:37:36;97210.09;;;15.63;100.00
46614;BME280;32338;50.430;6.806;2022-07-22T00:40:03;97204.16;;;15.68;100.00
46614;BME280;32338;50.430;6.806;2022-07-22T00:42:30;97204.97;;;15.75;100.00
46614;BME280;32338;50.430;6.806;2022-07-22T00:44:58;97203.72;;;15.71;100.00
46614;BME280;32338;50.430;6.806;2022-07-22T00:47:25;97201.50;;;15.68;100.00
46614;BME280;32338;50.430;6.806;2022-07-22T00:49:52;97200.69;;;15.61;100.00
46614;BME280;32338;50.430;6.806;2022-07-22T00:52:19;97195.38;;;15.61;100.00
46614;BME280;32338;50.430;6.806;2022-07-22T00:54:46;97198.03;;;15.61;100.00
46614;BME280;32338;50.430;6.806;2022-07-22T00:57:13;97198.66;;;15.56;100.00
46614;BME280;32338;50.430;6.806;2022-07-22T00:59:40;97192.09;;;15.52;100.00
46614;BME280;32338;50.430;6.806;2022-07-22T01:02:09;97192.31;;;15.50;100.00
46614;BME280;32338;50.430;6.806;2022-07-22T01:04:36;97190.50;;;15.44;100.00
46614;BME280;32338;50.430;6.806;2022-07-22T01:07:03;97184.34;;;15.50;100.00
46614;BME280;32338;50.430;6.806;2022-07-22T01:09:30;97184.16;;;15.45;100.00
46614;BME280;32338;50.430;6.806;2022-07-22T01:11:56;97189.28;;;15.33;100.00
46614;BME280;32338;50.430;6.806;2022-07-22T01:14:23;97186.44;;;15.28;100.00
46614;BME280;32338;50.430;6.806;2022-07-22T01:16:50;97187.66;;;15.26;100.00
46614;BME280;32338;50.430;6.806;2022-07-22T01:19:18;97188.50;;;15.19;100.00
46614;BME280;32338;50.430;6.806;2022-07-22T01:21:46;97185.19;;;15.37;100.00
46614;BME280;32338;50.430;6.806;2022-07-22T01:24:13;97185.19;;;15.37;100.00
46614;BME280;32338;50.430;6.806;2022-07-22T01:26:39;97178.81;;;15.45;100.00
46614;BME280;32338;50.430;6.806;2022-07-22T01:29:07;97178.59;;;15.47;100.00
46614;BME280;32338;50.430;6.806;2022-07-22T01:31:34;97176.56;;;15.49;100.00
46614;BME280;32338;50.430;6.806;2022-07-22T01:34:00;97183.06;;;15.60;100.00
46614;BME280;32338;50.430;6.806;2022-07-22T01:36:27;97178.56;;;15.53;100.00
46614;BME280;32338;50.430;6.806;2022-07-22T01:38:56;97181.47;;;15.52;100.00
46614;BME280;32338;50.430;6.806;2022-07-22T01:41:22;97181.25;;;15.53;100.00
46614;BME280;32338;50.430;6.806;2022-07-22T01:43:49;97186.81;;;15.45;100.00
46614;BME280;32338;50.430;6.806;2022-07-22T01:46:16;97182.28;;;15.46;100.00
46614;BME280;32338;50.430;6.806;2022-07-22T01:48:44;97187.22;;;15.49;100.00
46614;BME280;32338;50.430;6.806;2022-07-22T01:51:11;97184.56;;;15.49;100.00
46614;BME280;32338;50.430;6.806;2022-07-22T01:53:37;97183.72;;;15.48;100.00
46614;BME280;32338;50.430;6.806;2022-07-22T01:56:06;97191.34;;;15.38;100.00
46614;BME280;32338;50.430;6.806;2022-07-22T01:58:33;97189.88;;;15.42;100.00
46614;BME280;32338;50.430;6.806;2022-07-22T02:01:00;97187.00;;;15.50;100.00
46614;BME280;32338;50.430;6.806;2022-07-22T02:03:27;97195.38;;;15.47;100.00
46614;BME280;32338;50.430;6.806;2022-07-22T02:05:54;97191.06;;;15.60;100.00
46614;BME280;32338;50.430;6.806;2022-07-22T02:08:21;97184.97;;;15.46;100.00
46614;BME280;32338;50.430;6.806;2022-07-22T02:10:47;97189.66;;;15.50;100.00
46614;BME280;32338;50.430;6.806;2022-07-22T02:13:15;97183.97;;;15.33;100.00
46614;BME280;32338;50.430;6.806;2022-07-22T02:15:42;97189.72;;;15.30;100.00
46614;BME280;32338;50.430;6.806;2022-07-22T02:18:11;97183.78;;;15.35;100.00
46614;BME280;32338;50.430;6.806;2022-07-22T02:20:38;97185.78;;;15.46;100.00
46614;BME280;32338;50.430;6.806;2022-07-22T02:23:05;97182.31;;;15.39;100.00
46614;BME280;32338;50.430;6.806;2022-07-22T02:25:32;97177.16;;;15.51;100.00
46614;BME280;32338;50.430;6.806;2022-07-22T02:27:59;97179.44;;;15.40;100.00
46614;BME280;32338;50.430;6.806;2022-07-22T02:30:27;97171.06;;;15.44;100.00
46614;BME280;32338;50.430;6.806;2022-07-22T02:32:54;97175.31;;;15.45;100.00
46614;BME280;32338;50.430;6.806;2022-07-22T02:35:20;97178.22;;;15.43;100.00
46614;BME280;32338;50.430;6.806;2022-07-22T02:37:47;97186.81;;;15.38;100.00
46614;BME280;32338;50.430;6.806;2022-07-22T02:40:14;97174.72;;;15.36;100.00
46614;BME280;32338;50.430;6.806;2022-07-22T02:42:40;97182.72;;;15.36;100.00
46614;BME280;32338;50.430;6.806;2022-07-22T02:45:08;97172.50;;;15.33;100.00
46614;BME280;32338;50.430;6.806;2022-07-22T02:47:44;97175.00;;;15.14;100.00
46614;BME280;32338;50.430;6.806;2022-07-22T02:50:11;97169.28;;;15.17;100.00
46614;BME280;32338;50.430;6.806;2022-07-22T02:52:38;97174.97;;;15.21;100.00
46614;BME280;32338;50.430;6.806;2022-07-22T02:55:06;97175.44;;;15.11;100.00
46614;BME280;32338;50.430;6.806;2022-07-22T02:57:32;97175.63;;;15.03;100.00
46614;BME280;32338;50.430;6.806;2022-07-22T02:59:59;97176.25;;;15.05;100.00
46614;BME280;32338;50.430;6.806;2022-07-22T03:02:26;97176.66;;;15.02;100.00
46614;BME280;32338;50.430;6.806;2022-07-22T03:04:53;97175.81;;;15.15;100.00
46614;BME280;32338;50.430;6.806;2022-07-22T03:07:20;97169.06;;;15.19;100.00
46614;BME280;32338;50.430;6.806;2022-07-22T03:09:47;97169.47;;;15.22;100.00
46614;BME280;32338;50.430;6.806;2022-07-22T03:12:13;97164.97;;;15.16;100.00
46614;BME280;32338;50.430;6.806;2022-07-22T03:14:40;97169.47;;;15.09;100.00
46614;BME280;32338;50.430;6.806;2022-07-22T03:17:07;97160.88;;;15.14;100.00
46614;BME280;32338;50.430;6.806;2022-07-22T03:19:33;97164.56;;;15.06;100.00
46614;BME280;32338;50.430;6.806;2022-07-22T03:22:01;97174.81;;;15.02;100.00
46614;BME280;32338;50.430;6.806;2022-07-22T03:24:28;97164.97;;;15.10;100.00
46614;BME280;32338;50.430;6.806;2022-07-22T03:26:55;97168.66;;;15.15;100.00
46614;BME280;32338;50.430;6.806;2022-07-22T03:29:21;97165.38;;;15.13;100.00
46614;BME280;32338;50.430;6.806;2022-07-22T03:31:48;97167.00;;;15.14;100.00
46614;BME280;32338;50.430;6.806;2022-07-22T03:34:15;97160.06;;;15.13;100.00
46614;BME280;32338;50.430;6.806;2022-07-22T03:36:41;97163.53;;;15.07;100.00
46614;BME280;32338;50.430;6.806;2022-07-22T03:39:09;97163.16;;;14.97;100.00
46614;BME280;32338;50.430;6.806;2022-07-22T03:41:36;97159.44;;;15.04;100.00
46614;BME280;32338;50.430;6.806;2022-07-22T03:44:03;97153.91;;;15.13;100.00
46614;BME280;32338;50.430;6.806;2022-07-22T03:46:30;97159.44;;;15.18;100.00
46614;BME280;32338;50.430;6.806;2022-07-22T03:48:57;97157.19;;;15.08;100.00
46614;BME280;32338;50.430;6.806;2022-07-22T03:51:23;97156.56;;;15.06;100.00
46614;BME280;32338;50.430;6.806;2022-07-22T03:53:50;97155.78;;;14.99;100.00
46614;BME280;32338;50.430;6.806;2022-07-22T03:56:18;97157.63;;;14.91;100.00
46614;BME280;32338;50.430;6.806;2022-07-22T03:58:44;97148.19;;;14.96;100.00
46614;BME280;32338;50.430;6.806;2022-07-22T04:01:11;97143.91;;;15.01;100.00
46614;BME280;32338;50.430;6.806;2022-07-22T04:03:38;97155.97;;;15.17;100.00
46614;BME280;32338;50.430;6.806;2022-07-22T04:06:05;97162.69;;;15.27;100.00
46614;BME280;32338;50.430;6.806;2022-07-22T04:08:32;97163.94;;;15.17;100.00
46614;BME280;32338;50.430;6.806;2022-07-22T04:10:59;97161.91;;;15.06;100.00
46614;BME280;32338;50.430;6.806;2022-07-22T04:13:27;97169.69;;;15.01;100.00
46614;BME280;32338;50.430;6.806;2022-07-22T04:15:54;97163.56;;;15.00;100.00
46614;BME280;32338;50.430;6.806;2022-07-22T04:18:20;97166.81;;;14.96;100.00
46614;BME280;32338;50.430;6.806;2022-07-22T04:20:47;97166.41;;;14.92;100.00
46614;BME280;32338;50.430;6.806;2022-07-22T04:23:14;97172.97;;;14.69;100.00
46614;BME280;32338;50.430;6.806;2022-07-22T04:25:40;97171.75;;;14.72;100.00
46614;BME280;32338;50.430;6.806;2022-07-22T04:28:07;97170.72;;;14.73;100.00
46614;BME280;32338;50.430;6.806;2022-07-22T04:30:35;97175.03;;;14.87;100.00
46614;BME280;32338;50.430;6.806;2022-07-22T04:33:02;97177.88;;;14.86;100.00
46614;BME280;32338;50.430;6.806;2022-07-22T04:35:28;97181.38;;;14.86;100.00
46614;BME280;32338;50.430;6.806;2022-07-22T04:37:55;97179.94;;;14.84;100.00
46614;BME280;32338;50.430;6.806;2022-07-22T04:40:22;97186.69;;;14.80;100.00
46614;BME280;32338;50.430;6.806;2022-07-22T04:42:49;97177.06;;;14.92;100.00
46614;BME280;32338;50.430;6.806;2022-07-22T04:45:16;97189.56;;;14.91;100.00
46614;BME280;32338;50.430;6.806;2022-07-22T04:47:44;97185.88;;;14.79;100.00
46614;BME280;32338;50.430;6.806;2022-07-22T04:50:11;97185.25;;;14.77;100.00
46614;BME280;32338;50.430;6.806;2022-07-22T04:52:37;97186.47;;;14.74;100.00
46614;BME280;32338;50.430;6.806;2022-07-22T04:55:05;97187.91;;;14.90;100.00
46614;BME280;32338;50.430;6.806;2022-07-22T04:57:32;97188.94;;;14.96;100.00
46614;BME280;32338;50.430;6.806;2022-07-22T04:59:58;97190.34;;;14.92;100.00
46614;BME280;32338;50.430;6.806;2022-07-22T05:02:25;97177.91;;;14.72;100.00
46614;BME280;32338;50.430;6.806;2022-07-22T05:04:53;97173.41;;;14.66;100.00
46614;BME280;32338;50.430;6.806;2022-07-22T05:07:20;97168.28;;;14.78;100.00
46614;BME280;32338;50.430;6.806;2022-07-22T05:09:47;97176.66;;;14.88;100.00
46614;BME280;32338;50.430;6.806;2022-07-22T05:12:13;97177.09;;;14.79;100.00
46614;BME280;32338;50.430;6.806;2022-07-22T05:14:40;97173.41;;;14.66;100.00
46614;BME280;32338;50.430;6.806;2022-07-22T05:17:09;97172.59;;;14.72;100.00
46614;BME280;32338;50.430;6.806;2022-07-22T05:19:37;97174.19;;;14.73;100.00
46614;BME280;32338;50.430;6.806;2022-07-22T05:22:05;97173.81;;;14.77;100.00
46614;BME280;32338;50.430;6.806;2022-07-22T05:24:32;97164.16;;;14.96;100.00
46614;BME280;32338;50.430;6.806;2022-07-22T05:27:00;97168.03;;;15.13;100.00
46614;BME280;32338;50.430;6.806;2022-07-22T05:29:26;97175.78;;;15.28;100.00
46614;BME280;32338;50.430;6.806;2022-07-22T05:31:53;97170.44;;;15.42;100.00
46614;BME280;32338;50.430;6.806;2022-07-22T05:34:20;97172.69;;;15.38;100.00
46614;BME280;32338;50.430;6.806;2022-07-22T05:36:47;97168.19;;;15.45;100.00
46614;BME280;32338;50.430;6.806;2022-07-22T05:39:15;97166.72;;;15.49;100.00
46614;BME280;32338;50.430;6.806;2022-07-22T05:41:41;97166.75;;;15.43;100.00
46614;BME280;32338;50.430;6.806;2022-07-22T05:44:08;97160.66;;;15.29;100.00
46614;BME280;32338;50.430;6.806;2022-07-22T05:46:34;97161.91;;;15.13;100.00
46614;BME280;32338;50.430;6.806;2022-07-22T05:49:01;97160.66;;;15.15;100.00
46614;BME280;32338;50.430;6.806;2022-07-22T05:51:29;97153.72;;;15.14;100.00
46614;BME280;32338;50.430;6.806;2022-07-22T05:53:56;97153.44;;;15.36;100.00
46614;BME280;32338;50.430;6.806;2022-07-22T05:56:24;97160.41;;;15.44;100.00
46614;BME280;32338;50.430;6.806;2022-07-22T05:58:51;97145.03;;;15.52;100.00
46614;BME280;32338;50.430;6.806;2022-07-22T06:01:18;97139.25;;;15.55;100.00
46614;BME280;32338;50.430;6.806;2022-07-22T06:03:44;97144.41;;;15.50;100.00
46614;BME280;32338;50.430;6.806;2022-07-22T06:06:11;97143.19;;;15.39;100.00
46614;BME280;32338;50.430;6.806;2022-07-22T06:08:38;97145.50;;;15.22;100.00
46614;BME280;32338;50.430;6.806;2022-07-22T06:11:05;97140.00;;;15.17;100.00
46614;BME280;32338;50.430;6.806;2022-07-22T06:13:34;97147.34;;;15.22;100.00
46614;BME280;32338;50.430;6.806;2022-07-22T06:16:01;97138.34;;;15.23;100.00
46614;BME280;32338;50.430;6.806;2022-07-22T06:18:28;97148.19;;;15.22;100.00
46614;BME280;32338;50.430;6.806;2022-07-22T06:20:54;97151.25;;;15.26;100.00
46614;BME280;32338;50.430;6.806;2022-07-22T06:23:23;97165.13;;;15.42;100.00
46614;BME280;32338;50.430;6.806;2022-07-22T06:25:49;97150.09;;;15.61;100.00
46614;BME280;32338;50.430;6.806;2022-07-22T06:28:16;97146.53;;;15.80;100.00
46614;BME280;32338;50.430;6.806;2022-07-22T06:30:44;97148.03;;;15.63;100.00
46614;BME280;32338;50.430;6.806;2022-07-22T06:33:11;97156.69;;;15.45;100.00
46614;BME280;32338;50.430;6.806;2022-07-22T06:35:38;97151.84;;;15.35;100.00
46614;BME280;32338;50.430;6.806;2022-07-22T06:38:05;97159.59;;;15.36;100.00
46614;BME280;32338;50.430;6.806;2022-07-22T06:40:32;97154.44;;;15.48;100.00
46614;BME280;32338;50.430;6.806;2022-07-22T06:42:59;97155.63;;;15.59;100.00
46614;BME280;32338;50.430;6.806;2022-07-22T06:45:26;97153.94;;;15.71;100.00
46614;BME280;32338;50.430;6.806;2022-07-22T06:47:54;97156.78;;;15.90;100.00
46614;BME280;32338;50.430;6.806;2022-07-22T06:50:20;97148.59;;;15.85;100.00
46614;BME280;32338;50.430;6.806;2022-07-22T06:52:47;97152.88;;;15.79;100.00
46614;BME280;32338;50.430;6.806;2022-07-22T06:55:14;97152.69;;;15.87;100.00
46614;BME280;32338;50.430;6.806;2022-07-22T06:57:41;97163.91;;;15.96;100.00
46614;BME280;32338;50.430;6.806;2022-07-22T07:00:08;97158.59;;;15.96;100.00
46614;BME280;32338;50.430;6.806;2022-07-22T07:02:35;97158.94;;;16.07;100.00
46614;BME280;32338;50.430;6.806;2022-07-22T07:05:04;97153.03;;;15.98;100.00
46614;BME280;32338;50.430;6.806;2022-07-22T07:07:31;97161.63;;;16.00;100.00
46614;BME280;32338;50.430;6.806;2022-07-22T07:09:58;97157.94;;;16.01;100.00
46614;BME280;32338;50.430;6.806;2022-07-22T07:12:24;97156.56;;;15.78;100.00
46614;BME280;32338;50.430;6.806;2022-07-22T07:14:51;97153.94;;;15.85;100.00
46614;BME280;32338;50.430;6.806;2022-07-22T07:17:18;97154.69;;;15.99;100.00
46614;BME280;32338;50.430;6.806;2022-07-22T07:19:44;97158.09;;;16.13;100.00
46614;BME280;32338;50.430;6.806;2022-07-22T07:22:12;97152.13;;;16.11;100.00
46614;BME280;32338;50.430;6.806;2022-07-22T07:24:39;97163.25;;;16.08;100.00
46614;BME280;32338;50.430;6.806;2022-07-22T07:27:05;97160.28;;;16.23;100.00
46614;BME280;32338;50.430;6.806;2022-07-22T07:29:32;97159.59;;;16.34;96.26
46614;BME280;32338;50.430;6.806;2022-07-22T07:31:59;97159.34;;;16.03;97.68
46614;BME280;32338;50.430;6.806;2022-07-22T07:34:25;97156.66;;;16.10;96.04
46614;BME280;32338;50.430;6.806;2022-07-22T07:36:52;97151.75;;;16.07;99.49
46614;BME280;32338;50.430;6.806;2022-07-22T07:39:21;97151.16;;;16.05;100.00
46614;BME280;32338;50.430;6.806;2022-07-22T07:41:48;97150.53;;;16.03;100.00
46614;BME280;32338;50.430;6.806;2022-07-22T07:44:16;97149.91;;;16.08;98.55
46614;BME280;32338;50.430;6.806;2022-07-22T07:46:42;97152.31;;;16.16;100.00
46614;BME280;32338;50.430;6.806;2022-07-22T07:49:09;97147.28;;;16.33;100.00
46614;BME280;32338;50.430;6.806;2022-07-22T07:51:36;97146.25;;;16.34;100.00
46614;BME280;32338;50.430;6.806;2022-07-22T07:54:03;97148.94;;;16.27;98.89
46614;BME280;32338;50.430;6.806;2022-07-22T07:56:32;97148.22;;;16.13;100.00
46614;BME280;32338;50.430;6.806;2022-07-22T07:58:58;97145.59;;;16.07;99.23
46614;BME280;32338;50.430;6.806;2022-07-22T08:01:25;97138.72;;;16.24;100.00
46614;BME280;32338;50.430;6.806;2022-07-22T08:03:52;97139.16;;;16.21;97.80
46614;BME280;32338;50.430;6.806;2022-07-22T08:06:18;97134.50;;;16.10;98.38
46614;BME280;32338;50.430;6.806;2022-07-22T08:08:45;97118.44;;;16.23;100.00
46614;BME280;32338;50.430;6.806;2022-07-22T08:11:13;97121.13;;;16.48;94.91
46614;BME280;32338;50.430;6.806;2022-07-22T08:13:41;97128.72;;;16.70;100.00
46614;BME280;32338;50.430;6.806;2022-07-22T08:16:08;97127.16;;;16.62;97.99
46614;BME280;32338;50.430;6.806;2022-07-22T08:18:35;97134.28;;;16.68;95.54
46614;BME280;32338;50.430;6.806;2022-07-22T08:21:01;97125.91;;;16.65;94.51
46614;BME280;32338;50.430;6.806;2022-07-22T08:23:28;97126.84;;;16.52;94.77
46614;BME280;32338;50.430;6.806;2022-07-22T08:25:55;97135.75;;;16.64;93.40
46614;BME280;32338;50.430;6.806;2022-07-22T08:28:22;97130.81;;;16.68;93.18
46614;BME280;32338;50.430;6.806;2022-07-22T08:30:50;97130.72;;;16.81;97.28
46614;BME280;32338;50.430;6.806;2022-07-22T08:33:17;97126.50;;;16.92;97.61
46614;BME280;32338;50.430;6.806;2022-07-22T08:35:44;97125.25;;;16.95;95.19
46614;BME280;32338;50.430;6.806;2022-07-22T08:38:10;97129.56;;;16.96;93.87
46614;BME280;32338;50.430;6.806;2022-07-22T08:40:37;97120.69;;;17.02;96.00
46614;BME280;32338;50.430;6.806;2022-07-22T08:43:04;97120.03;;;17.07;96.78
46614;BME280;32338;50.430;6.806;2022-07-22T08:45:32;97125.56;;;17.24;93.00
46614;BME280;32338;50.430;6.806;2022-07-22T08:48:00;97129.59;;;17.33;91.77
46614;BME280;32338;50.430;6.806;2022-07-22T08:50:29;97121.97;;;17.37;90.26
46614;BME280;32338;50.430;6.806;2022-07-22T08:52:55;97124.13;;;17.28;91.90
46614;BME280;32338;50.430;6.806;2022-07-22T08:55:22;97118.78;;;17.28;92.92
46614;BME280;32338;50.430;6.806;2022-07-22T08:57:50;97118.84;;;17.40;89.79
46614;BME280;32338;50.430;6.806;2022-07-22T09:00:19;97121.22;;;17.29;89.81
46614;BME280;32338;50.430;6.806;2022-07-22T09:02:47;97110.44;;;17.36;94.16
46614;BME280;32338;50.430;6.806;2022-07-22T09:05:16;97113.56;;;17.52;94.72
46614;BME280;32338;50.430;6.806;2022-07-22T09:07:44;97115.50;;;17.63;93.52
46614;BME280;32338;50.430;6.806;2022-07-22T09:10:13;97103.22;;;17.74;90.44
46614;BME280;32338;50.430;6.806;2022-07-22T09:12:55;97107.16;;;17.71;85.41
46614;BME280;32338;50.430;6.806;2022-07-22T09:15:28;97107.97;;;17.72;86.30
46614;BME280;32338;50.430;6.806;2022-07-22T09:17:56;97110.28;;;17.68;87.35
46614;BME280;32338;50.430;6.806;2022-07-22T09:20:25;97103.72;;;17.82;87.90
46614;BME280;32338;50.430;6.806;2022-07-22T09:22:52;97105.03;;;17.92;83.99
46614;BME280;32338;50.430;6.806;2022-07-22T09:25:25;97097.19;;;17.97;83.86
46614;BME280;32338;50.430;6.806;2022-07-22T09:28:10;97103.13;;;17.99;82.03
46614;BME280;32338;50.430;6.806;2022-07-22T09:30:38;97097.06;;;18.04;85.90
46614;BME280;32338;50.430;6.806;2022-07-22T09:33:06;97096.41;;;18.08;84.00
46614;BME280;32338;50.430;6.806;2022-07-22T09:35:34;97090.13;;;18.14;84.00
46614;BME280;32338;50.430;6.806;2022-07-22T09:38:03;97104.56;;;18.13;79.74
46614;BME280;32338;50.430;6.806;2022-07-22T09:40:32;97090.50;;;18.30;82.83
46614;BME280;32338;50.430;6.806;2022-07-22T09:43:01;97100.88;;;18.38;79.15
46614;BME280;32338;50.430;6.806;2022-07-22T09:45:29;97100.44;;;18.53;86.24
46614;BME280;32338;50.430;6.806;2022-07-22T09:47:58;97097.41;;;18.50;76.13
46614;BME280;32338;50.430;6.806;2022-07-22T09:50:27;97106.28;;;18.62;79.62
46614;BME280;32338;50.430;6.806;2022-07-22T09:52:57;97093.72;;;18.74;77.82
46614;BME280;32338;50.430;6.806;2022-07-22T09:55:26;97085.09;;;18.72;74.51
46614;BME280;32338;50.430;6.806;2022-07-22T09:57:54;97090.56;;;18.66;76.42
46614;BME280;32338;50.430;6.806;2022-07-22T10:00:22;97081.13;;;18.75;80.24
46614;BME280;32338;50.430;6.806;2022-07-22T10:02:51;97084.06;;;18.97;79.12
46614;BME280;32338;50.430;6.806;2022-07-22T10:05:20;97078.81;;;19.02;73.91
46614;BME280;32338;50.430;6.806;2022-07-22T10:07:48;97077.50;;;19.17;76.96
46614;BME280;32338;50.430;6.806;2022-07-22T10:10:18;97071.63;;;19.43;76.85
46614;BME280;32338;50.430;6.806;2022-07-22T10:12:48;97076.81;;;19.62;72.81
46614;BME280;32338;50.430;6.806;2022-07-22T10:15:16;97066.09;;;19.62;74.17
46614;BME280;32338;50.430;6.806;2022-07-22T10:17:46;97059.78;;;19.68;71.64
46614;BME280;32338;50.430;6.806;2022-07-22T10:20:16;97060.78;;;19.79;74.33
46614;BME280;32338;50.430;6.806;2022-07-22T10:22:49;97067.09;;;19.73;71.77
46614;BME280;32338;50.430;6.806;2022-07-22T10:25:19;97057.25;;;19.90;75.34
46614;BME280;32338;50.430;6.806;2022-07-22T10:27:49;97065.25;;;20.02;71.48
46614;BME280;32338;50.430;6.806;2022-07-22T10:30:17;97059.88;;;20.02;69.89
46614;BME280;32338;50.430;6.806;2022-07-22T10:32:44;97067.84;;;19.97;72.47
46614;BME280;32338;50.430;6.806;2022-07-22T10:35:22;97055.81;;;20.17;72.22
46614;BME280;32338;50.430;6.806;2022-07-22T10:37:53;97050.31;;;20.23;77.26
46614;BME280;32338;50.430;6.806;2022-07-22T10:40:23;97057.66;;;20.28;71.94
46614;BME280;32338;50.430;6.806;2022-07-22T10:43:08;97058.78;;;20.32;73.75
46614;BME280;32338;50.430;6.806;2022-07-22T10:45:37;97054.97;;;20.28;70.11
46614;BME280;32338;50.430;6.806;2022-07-22T10:48:06;97056.31;;;20.48;76.78
46614;BME280;32338;50.430;6.806;2022-07-22T10:53:40;97046.66;;;20.81;71.45
46614;BME280;32338;50.430;6.806;2022-07-22T10:56:20;97048.88;;;20.89;72.97
46614;BME280;32338;50.430;6.806;2022-07-22T10:58:52;97059.06;;;20.87;74.95
46614;BME280;32338;50.430;6.806;2022-07-22T11:01:22;97052.41;;;21.12;71.77
46614;BME280;32338;50.430;6.806;2022-07-22T11:03:49;97051.53;;;21.28;73.24
46614;BME280;32338;50.430;6.806;2022-07-22T11:06:23;97044.50;;;21.22;70.98
46614;BME280;32338;50.430;6.806;2022-07-22T11:08:51;97043.41;;;21.45;70.33
46614;BME280;32338;50.430;6.806;2022-07-22T11:11:31;97044.88;;;21.31;70.28
46614;BME280;32338;50.430;6.806;2022-07-22T11:13:59;97041.97;;;21.15;69.03
46614;BME280;32338;50.430;6.806;2022-07-22T11:16:26;97045.78;;;21.19;72.52
46614;BME280;32338;50.430;6.806;2022-07-22T11:18:56;97038.03;;;21.23;71.04
46614;BME280;32338;50.430;6.806;2022-07-22T11:21:24;97026.19;;;21.41;69.50
46614;BME280;32338;50.430;6.806;2022-07-22T11:23:53;97024.75;;;21.83;69.38
46614;BME280;32338;50.430;6.806;2022-07-22T11:26:26;97025.91;;;21.92;73.17
46614;BME280;32338;50.430;6.806;2022-07-22T11:28:52;97019.31;;;21.78;63.88
46614;BME280;32338;50.430;6.806;2022-07-22T11:31:19;97029.03;;;21.57;65.55
46614;BME280;32338;50.430;6.806;2022-07-22T11:33:46;97024.28;;;21.64;70.26
46614;BME280;32338;50.430;6.806;2022-07-22T11:36:13;97029.97;;;21.67;66.88
46614;BME280;32338;50.430;6.806;2022-07-22T11:38:45;97029.16;;;21.94;66.06
46614;BME280;32338;50.430;6.806;2022-07-22T11:41:13;97022.66;;;21.90;63.96
46614;BME280;32338;50.430;6.806;2022-07-22T11:43:42;97028.69;;;22.02;64.24
46614;BME280;32338;50.430;6.806;2022-07-22T11:46:10;97017.75;;;22.14;65.77
46614;BME280;32338;50.430;6.806;2022-07-22T11:48:37;97023.50;;;22.61;65.93
46614;BME280;32338;50.430;6.806;2022-07-22T11:51:05;97009.91;;;22.88;61.63
46614;BME280;32338;50.430;6.806;2022-07-22T11:53:33;97013.16;;;22.90;62.41
46614;BME280;32338;50.430;6.806;2022-07-22T11:56:01;97017.72;;;22.84;60.32
46614;BME280;32338;50.430;6.806;2022-07-22T11:58:50;97014.50;;;22.88;62.64
46614;BME280;32338;50.430;6.806;2022-07-22T12:01:20;97006.75;;;23.02;60.80
46614;BME280;32338;50.430;6.806;2022-07-22T12:03:49;97010.38;;;23.18;62.83
46614;BME280;32338;50.430;6.806;2022-07-22T12:06:17;97007.41;;;23.24;59.83
46614;BME280;32338;50.430;6.806;2022-07-22T12:08:46;96994.53;;;23.42;60.71
46614;BME280;32338;50.430;6.806;2022-07-22T12:11:16;96994.03;;;23.50;62.29
46614;BME280;32338;50.430;6.806;2022-07-22T12:13:43;96996.97;;;23.48;66.75
46614;BME280;32338;50.430;6.806;2022-07-22T12:16:20;96997.84;;;23.90;59.60
46614;BME280;32338;50.430;6.806;2022-07-22T12:18:56;96993.78;;;23.72;60.96
46614;BME280;32338;50.430;6.806;2022-07-22T12:21:24;96981.69;;;24.01;57.57
46614;BME280;32338;50.430;6.806;2022-07-22T12:23:52;96985.94;;;23.76;60.58
46614;BME280;32338;50.430;6.806;2022-07-22T12:26:19;96985.75;;;23.93;59.45
46614;BME280;32338;50.430;6.806;2022-07-22T12:28:46;96975.44;;;23.79;66.99
46614;BME280;32338;50.430;6.806;2022-07-22T12:31:13;96972.19;;;23.67;66.06
46614;BME280;32338;50.430;6.806;2022-07-22T12:33:48;96977.09;;;24.22;59.95
46614;BME280;32338;50.430;6.806;2022-07-22T12:36:15;96974.38;;;24.01;60.96
46614;BME280;32338;50.430;6.806;2022-07-22T12:38:42;96971.13;;;24.25;58.62
46614;BME280;32338;50.430;6.806;2022-07-22T12:41:25;96962.22;;;24.40;59.57
46614;BME280;32338;50.430;6.806;2022-07-22T12:43:51;96961.66;;;24.53;59.39
46614;BME280;32338;50.430;6.806;2022-07-22T12:46:18;96953.63;;;24.12;59.26
46614;BME280;32338;50.430;6.806;2022-07-22T12:48:51;96949.81;;;23.87;62.37
46614;BME280;32338;50.430;6.806;2022-07-22T12:51:18;96945.72;;;23.48;63.16
46614;BME280;32338;50.430;6.806;2022-07-22T12:53:45;96944.06;;;23.22;66.00
46614;BME280;32338;50.430;6.806;2022-07-22T12:56:12;96947.06;;;23.36;66.45
46614;BME280;32338;50.430;6.806;2022-07-22T12:58:39;96944.69;;;23.75;69.12
46614;BME280;32338;50.430;6.806;2022-07-22T13:01:07;96952.22;;;23.78;63.91